sensor_id;sensor_type;location;lat;lon;timestamp;P1;durP1;ratioP1;P2;durP2;ratioP2
35632;SDS011;21754;48.216;-1.628;2024-02-15T00:01:00;4.18;;;2.50;;
35632;SDS011;21754;48.216;-1.628;2024-02-15T00:03:27;8.95;;;2.80;;
35632;SDS011;21754;48.216;-1.628;2024-02-15T00:05:53;7.45;;;2.90;;
35632;SDS011;21754;48.216;-1.628;2024-02-15T00:08:19;4.93;;;2.58;;
35632;SDS011;21754;48.216;-1.628;2024-02-15T00:10:46;3.03;;;2.72;;
35632;SDS011;21754;48.216;-1.628;2024-02-15T00:13:12;7.18;;;2.50;;
35632;SDS011;21754;48.216;-1.628;2024-02-15T00:15:38;12.98;;;2.80;;
35632;SDS011;21754;48.216;-1.628;2024-02-15T00:18:04;6.35;;;2.60;;
35632;SDS011;21754;48.216;-1.628;2024-02-15T00:20:32;7.00;;;2.88;;
35632;SDS011;21754;48.216;-1.628;2024-02-15T00:22:59;3.20;;;2.35;;
35632;SDS011;21754;48.216;-1.628;2024-02-15T00:25:25;4.45;;;2.60;;
35632;SDS011;21754;48.216;-1.628;2024-02-15T00:27:51;4.53;;;2.95;;
35632;SDS011;21754;48.216;-1.628;2024-02-15T00:30:17;2.53;;;2.13;;
35632;SDS011;21754;48.216;-1.628;2024-02-15T00:32:43;4.68;;;2.38;;
35632;SDS011;21754;48.216;-1.628;2024-02-15T00:35:11;5.75;;;3.00;;
35632;SDS011;21754;48.216;-1.628;2024-02-15T00:37:38;4.70;;;2.45;;
35632;SDS011;21754;48.216;-1.628;2024-02-15T00:40:04;8.30;;;2.88;;
35632;SDS011;21754;48.216;-1.628;2024-02-15T00:42:30;3.90;;;2.40;;
35632;SDS011;21754;48.216;-1.628;2024-02-15T00:44:57;2.90;;;2.60;;
35632;SDS011;21754;48.216;-1.628;2024-02-15T00:47:23;6.82;;;2.85;;
35632;SDS011;21754;48.216;-1.628;2024-02-15T00:49:49;2.08;;;1.85;;
35632;SDS011;21754;48.216;-1.628;2024-02-15T00:52:15;5.40;;;2.88;;
35632;SDS011;21754;48.216;-1.628;2024-02-15T00:54:43;7.60;;;2.63;;
35632;SDS011;21754;48.216;-1.628;2024-02-15T00:57:09;6.57;;;3.17;;
35632;SDS011;21754;48.216;-1.628;2024-02-15T00:59:36;6.10;;;3.63;;
35632;SDS011;21754;48.216;-1.628;2024-02-15T01:02:02;2.42;;;2.10;;
35632;SDS011;21754;48.216;-1.628;2024-02-15T01:04:28;5.50;;;2.35;;
35632;SDS011;21754;48.216;-1.628;2024-02-15T01:06:55;7.95;;;2.88;;
35632;SDS011;21754;48.216;-1.628;2024-02-15T01:09:21;7.15;;;2.65;;
35632;SDS011;21754;48.216;-1.628;2024-02-15T01:11:47;6.43;;;2.70;;
35632;SDS011;21754;48.216;-1.628;2024-02-15T01:14:14;4.22;;;2.45;;
35632;SDS011;21754;48.216;-1.628;2024-02-15T01:16:40;3.42;;;2.30;;
35632;SDS011;21754;48.216;-1.628;2024-02-15T01:19:06;5.82;;;2.17;;
35632;SDS011;21754;48.216;-1.628;2024-02-15T01:21:32;6.95;;;3.03;;
35632;SDS011;21754;48.216;-1.628;2024-02-15T01:23:59;5.45;;;3.13;;
35632;SDS011;21754;48.216;-1.628;2024-02-15T01:26:28;3.25;;;2.45;;
35632;SDS011;21754;48.216;-1.628;2024-02-15T01:28:57;4.60;;;2.95;;
35632;SDS011;21754;48.216;-1.628;2024-02-15T01:31:23;3.35;;;2.33;;
35632;SDS011;21754;48.216;-1.628;2024-02-15T01:33:49;4.30;;;2.70;;
35632;SDS011;21754;48.216;-1.628;2024-02-15T01:36:15;2.75;;;2.50;;
35632;SDS011;21754;48.216;-1.628;2024-02-15T01:38:42;4.65;;;3.40;;
35632;SDS011;21754;48.216;-1.628;2024-02-15T01:41:08;7.68;;;2.92;;
35632;SDS011;21754;48.216;-1.628;2024-02-15T01:43:35;6.57;;;2.78;;
35632;SDS011;21754;48.216;-1.628;2024-02-15T01:46:02;2.78;;;2.50;;
35632;SDS011;21754;48.216;-1.628;2024-02-15T01:48:33;6.95;;;3.40;;
35632;SDS011;21754;48.216;-1.628;2024-02-15T01:50:59;4.63;;;3.65;;
35632;SDS011;21754;48.216;-1.628;2024-02-15T01:53:25;9.52;;;2.35;;
35632;SDS011;21754;48.216;-1.628;2024-02-15T01:55:52;3.25;;;2.78;;
35632;SDS011;21754;48.216;-1.628;2024-02-15T01:58:20;3.60;;;3.30;;
35632;SDS011;21754;48.216;-1.628;2024-02-15T02:00:46;12.23;;;3.08;;
35632;SDS011;21754;48.216;-1.628;2024-02-15T02:03:13;7.03;;;3.10;;
35632;SDS011;21754;48.216;-1.628;2024-02-15T02:05:40;4.03;;;3.15;;
35632;SDS011;21754;48.216;-1.628;2024-02-15T02:08:06;2.97;;;2.67;;
35632;SDS011;21754;48.216;-1.628;2024-02-15T02:10:36;5.07;;;3.05;;
35632;SDS011;21754;48.216;-1.628;2024-02-15T02:15:28;8.00;;;2.92;;
35632;SDS011;21754;48.216;-1.628;2024-02-15T02:17:56;8.50;;;3.28;;
35632;SDS011;21754;48.216;-1.628;2024-02-15T02:20:24;3.38;;;3.03;;
35632;SDS011;21754;48.216;-1.628;2024-02-15T02:22:50;6.80;;;3.20;;
35632;SDS011;21754;48.216;-1.628;2024-02-15T02:25:16;8.60;;;4.03;;
35632;SDS011;21754;48.216;-1.628;2024-02-15T02:27:43;7.00;;;3.45;;
35632;SDS011;21754;48.216;-1.628;2024-02-15T02:30:14;3.25;;;2.95;;
35632;SDS011;21754;48.216;-1.628;2024-02-15T02:32:43;6.03;;;3.60;;
35632;SDS011;21754;48.216;-1.628;2024-02-15T02:35:09;6.43;;;4.30;;
35632;SDS011;21754;48.216;-1.628;2024-02-15T02:37:38;7.38;;;3.42;;
35632;SDS011;21754;48.216;-1.628;2024-02-15T02:40:05;6.65;;;3.30;;
35632;SDS011;21754;48.216;-1.628;2024-02-15T02:45:21;5.00;;;3.55;;
35632;SDS011;21754;48.216;-1.628;2024-02-15T02:47:50;7.30;;;3.55;;
35632;SDS011;21754;48.216;-1.628;2024-02-15T02:50:17;4.65;;;3.58;;
35632;SDS011;21754;48.216;-1.628;2024-02-15T02:52:44;9.02;;;3.78;;
35632;SDS011;21754;48.216;-1.628;2024-02-15T02:55:10;7.30;;;3.57;;
35632;SDS011;21754;48.216;-1.628;2024-02-15T02:57:36;7.72;;;3.83;;
35632;SDS011;21754;48.216;-1.628;2024-02-15T03:00:06;3.60;;;2.85;;
35632;SDS011;21754;48.216;-1.628;2024-02-15T03:02:36;3.47;;;3.17;;
35632;SDS011;21754;48.216;-1.628;2024-02-15T03:05:03;4.22;;;3.58;;
35632;SDS011;21754;48.216;-1.628;2024-02-15T03:07:32;6.20;;;3.78;;
35632;SDS011;21754;48.216;-1.628;2024-02-15T03:09:59;3.80;;;3.15;;
35632;SDS011;21754;48.216;-1.628;2024-02-15T03:12:25;5.60;;;3.55;;
35632;SDS011;21754;48.216;-1.628;2024-02-15T03:14:51;5.15;;;3.88;;
35632;SDS011;21754;48.216;-1.628;2024-02-15T03:17:17;7.38;;;3.75;;
35632;SDS011;21754;48.216;-1.628;2024-02-15T03:19:43;4.03;;;3.60;;
35632;SDS011;21754;48.216;-1.628;2024-02-15T03:22:09;6.30;;;3.53;;
35632;SDS011;21754;48.216;-1.628;2024-02-15T03:24:38;4.60;;;3.83;;
35632;SDS011;21754;48.216;-1.628;2024-02-15T03:27:05;6.72;;;3.60;;
35632;SDS011;21754;48.216;-1.628;2024-02-15T03:29:31;4.68;;;4.25;;
35632;SDS011;21754;48.216;-1.628;2024-02-15T03:31:59;7.50;;;3.40;;
35632;SDS011;21754;48.216;-1.628;2024-02-15T03:34:25;4.50;;;3.63;;
35632;SDS011;21754;48.216;-1.628;2024-02-15T03:36:51;7.13;;;3.83;;
35632;SDS011;21754;48.216;-1.628;2024-02-15T03:39:19;15.77;;;4.45;;
35632;SDS011;21754;48.216;-1.628;2024-02-15T03:41:48;4.30;;;3.63;;
35632;SDS011;21754;48.216;-1.628;2024-02-15T03:44:14;12.07;;;3.95;;
35632;SDS011;21754;48.216;-1.628;2024-02-15T03:46:43;3.83;;;3.40;;
35632;SDS011;21754;48.216;-1.628;2024-02-15T03:49:16;10.32;;;3.88;;
35632;SDS011;21754;48.216;-1.628;2024-02-15T03:51:42;7.43;;;3.78;;
35632;SDS011;21754;48.216;-1.628;2024-02-15T03:54:10;3.67;;;3.25;;
35632;SDS011;21754;48.216;-1.628;2024-02-15T03:56:36;5.32;;;3.80;;
35632;SDS011;21754;48.216;-1.628;2024-02-15T03:59:02;5.40;;;3.55;;
35632;SDS011;21754;48.216;-1.628;2024-02-15T04:01:30;3.40;;;3.10;;
35632;SDS011;21754;48.216;-1.628;2024-02-15T04:03:59;5.03;;;3.53;;
35632;SDS011;21754;48.216;-1.628;2024-02-15T04:06:27;6.88;;;2.95;;
35632;SDS011;21754;48.216;-1.628;2024-02-15T04:08:55;5.38;;;3.88;;
35632;SDS011;21754;48.216;-1.628;2024-02-15T04:11:21;3.00;;;2.72;;
35632;SDS011;21754;48.216;-1.628;2024-02-15T04:13:47;3.53;;;3.22;;
35632;SDS011;21754;48.216;-1.628;2024-02-15T04:16:13;5.88;;;3.22;;
35632;SDS011;21754;48.216;-1.628;2024-02-15T04:18:41;3.33;;;2.67;;
35632;SDS011;21754;48.216;-1.628;2024-02-15T04:21:10;7.43;;;3.63;;
35632;SDS011;21754;48.216;-1.628;2024-02-15T04:23:36;5.70;;;3.03;;
35632;SDS011;21754;48.216;-1.628;2024-02-15T04:26:02;10.02;;;3.78;;
35632;SDS011;21754;48.216;-1.628;2024-02-15T04:28:28;5.93;;;3.03;;
35632;SDS011;21754;48.216;-1.628;2024-02-15T04:30:54;3.42;;;3.13;;
35632;SDS011;21754;48.216;-1.628;2024-02-15T04:33:20;5.25;;;3.88;;
35632;SDS011;21754;48.216;-1.628;2024-02-15T04:35:47;2.88;;;2.63;;
35632;SDS011;21754;48.216;-1.628;2024-02-15T04:38:15;4.18;;;3.55;;
35632;SDS011;21754;48.216;-1.628;2024-02-15T04:40:41;4.13;;;2.55;;
35632;SDS011;21754;48.216;-1.628;2024-02-15T04:43:07;2.72;;;2.50;;
35632;SDS011;21754;48.216;-1.628;2024-02-15T04:45:33;4.22;;;2.38;;
35632;SDS011;21754;48.216;-1.628;2024-02-15T04:48:00;4.90;;;3.25;;
35632;SDS011;21754;48.216;-1.628;2024-02-15T04:50:28;12.23;;;3.42;;
35632;SDS011;21754;48.216;-1.628;2024-02-15T04:52:54;5.45;;;2.90;;
35632;SDS011;21754;48.216;-1.628;2024-02-15T04:55:20;4.47;;;3.55;;
35632;SDS011;21754;48.216;-1.628;2024-02-15T04:57:47;4.00;;;3.20;;
35632;SDS011;21754;48.216;-1.628;2024-02-15T05:00:14;4.28;;;3.42;;
35632;SDS011;21754;48.216;-1.628;2024-02-15T05:02:40;8.68;;;3.30;;
35632;SDS011;21754;48.216;-1.628;2024-02-15T05:05:06;2.97;;;2.78;;
35632;SDS011;21754;48.216;-1.628;2024-02-15T05:07:33;3.63;;;2.90;;
35632;SDS011;21754;48.216;-1.628;2024-02-15T05:10:02;3.58;;;2.13;;
35632;SDS011;21754;48.216;-1.628;2024-02-15T05:12:31;6.18;;;2.97;;
35632;SDS011;21754;48.216;-1.628;2024-02-15T05:14:58;3.70;;;2.90;;
35632;SDS011;21754;48.216;-1.628;2024-02-15T05:17:24;12.80;;;3.08;;
35632;SDS011;21754;48.216;-1.628;2024-02-15T05:19:50;3.22;;;2.80;;
35632;SDS011;21754;48.216;-1.628;2024-02-15T05:22:16;5.60;;;2.92;;
35632;SDS011;21754;48.216;-1.628;2024-02-15T05:24:43;4.82;;;3.05;;
35632;SDS011;21754;48.216;-1.628;2024-02-15T05:27:10;2.58;;;2.15;;
35632;SDS011;21754;48.216;-1.628;2024-02-15T05:29:36;2.17;;;2.08;;
35632;SDS011;21754;48.216;-1.628;2024-02-15T05:32:04;7.85;;;2.45;;
35632;SDS011;21754;48.216;-1.628;2024-02-15T05:34:30;3.53;;;2.70;;
35632;SDS011;21754;48.216;-1.628;2024-02-15T05:36:56;3.08;;;2.78;;
35632;SDS011;21754;48.216;-1.628;2024-02-15T05:39:23;5.30;;;2.25;;
35632;SDS011;21754;48.216;-1.628;2024-02-15T05:41:50;3.55;;;2.33;;
35632;SDS011;21754;48.216;-1.628;2024-02-15T05:44:16;3.00;;;2.70;;
35632;SDS011;21754;48.216;-1.628;2024-02-15T05:46:45;4.25;;;2.25;;
35632;SDS011;21754;48.216;-1.628;2024-02-15T05:49:12;2.55;;;2.35;;
35632;SDS011;21754;48.216;-1.628;2024-02-15T05:51:42;3.28;;;2.38;;
35632;SDS011;21754;48.216;-1.628;2024-02-15T05:54:08;7.63;;;2.33;;
35632;SDS011;21754;48.216;-1.628;2024-02-15T05:56:35;2.78;;;2.25;;
35632;SDS011;21754;48.216;-1.628;2024-02-15T05:59:01;5.57;;;2.42;;
35632;SDS011;21754;48.216;-1.628;2024-02-15T06:01:35;5.15;;;2.28;;
35632;SDS011;21754;48.216;-1.628;2024-02-15T06:04:01;3.47;;;2.60;;
35632;SDS011;21754;48.216;-1.628;2024-02-15T06:06:33;5.65;;;2.35;;
35632;SDS011;21754;48.216;-1.628;2024-02-15T06:08:59;4.55;;;2.25;;
35632;SDS011;21754;48.216;-1.628;2024-02-15T06:11:26;3.53;;;2.58;;
35632;SDS011;21754;48.216;-1.628;2024-02-15T06:13:52;2.78;;;2.15;;
35632;SDS011;21754;48.216;-1.628;2024-02-15T06:16:18;3.47;;;2.33;;
35632;SDS011;21754;48.216;-1.628;2024-02-15T06:18:44;5.88;;;2.30;;
35632;SDS011;21754;48.216;-1.628;2024-02-15T06:21:13;3.33;;;1.95;;
35632;SDS011;21754;48.216;-1.628;2024-02-15T06:23:39;2.55;;;1.80;;
35632;SDS011;21754;48.216;-1.628;2024-02-15T06:26:05;9.55;;;1.98;;
35632;SDS011;21754;48.216;-1.628;2024-02-15T06:28:31;2.67;;;2.08;;
35632;SDS011;21754;48.216;-1.628;2024-02-15T06:31:21;3.97;;;2.05;;
35632;SDS011;21754;48.216;-1.628;2024-02-15T06:34:06;5.70;;;3.10;;
35632;SDS011;21754;48.216;-1.628;2024-02-15T06:36:52;5.30;;;2.20;;
35632;SDS011;21754;48.216;-1.628;2024-02-15T06:39:36;1.70;;;1.60;;
35632;SDS011;21754;48.216;-1.628;2024-02-15T06:42:13;4.35;;;2.17;;
35632;SDS011;21754;48.216;-1.628;2024-02-15T06:44:45;2.40;;;2.08;;
35632;SDS011;21754;48.216;-1.628;2024-02-15T06:47:12;3.85;;;1.58;;
35632;SDS011;21754;48.216;-1.628;2024-02-15T06:49:38;4.20;;;2.15;;
35632;SDS011;21754;48.216;-1.628;2024-02-15T06:52:07;6.78;;;2.42;;
35632;SDS011;21754;48.216;-1.628;2024-02-15T06:54:34;3.55;;;2.47;;
35632;SDS011;21754;48.216;-1.628;2024-02-15T06:57:03;2.92;;;2.30;;
35632;SDS011;21754;48.216;-1.628;2024-02-15T06:59:29;5.18;;;2.33;;
35632;SDS011;21754;48.216;-1.628;2024-02-15T07:01:57;2.83;;;1.60;;
35632;SDS011;21754;48.216;-1.628;2024-02-15T07:04:23;3.47;;;2.42;;
35632;SDS011;21754;48.216;-1.628;2024-02-15T07:06:50;3.83;;;2.07;;
35632;SDS011;21754;48.216;-1.628;2024-02-15T07:09:19;2.55;;;1.92;;
35632;SDS011;21754;48.216;-1.628;2024-02-15T07:11:45;3.65;;;2.47;;
35632;SDS011;21754;48.216;-1.628;2024-02-15T07:14:12;8.68;;;2.28;;
35632;SDS011;21754;48.216;-1.628;2024-02-15T07:16:38;2.30;;;2.03;;
35632;SDS011;21754;48.216;-1.628;2024-02-15T07:19:05;8.65;;;2.40;;
35632;SDS011;21754;48.216;-1.628;2024-02-15T07:21:32;3.42;;;2.28;;
35632;SDS011;21754;48.216;-1.628;2024-02-15T07:23:58;2.85;;;2.53;;
35632;SDS011;21754;48.216;-1.628;2024-02-15T07:26:24;2.25;;;2.03;;
35632;SDS011;21754;48.216;-1.628;2024-02-15T07:28:54;2.22;;;1.50;;
35632;SDS011;21754;48.216;-1.628;2024-02-15T07:31:20;3.40;;;2.90;;
35632;SDS011;21754;48.216;-1.628;2024-02-15T07:33:47;2.42;;;2.22;;
35632;SDS011;21754;48.216;-1.628;2024-02-15T07:36:17;2.65;;;1.75;;
35632;SDS011;21754;48.216;-1.628;2024-02-15T07:38:43;2.90;;;2.00;;
35632;SDS011;21754;48.216;-1.628;2024-02-15T07:41:10;1.85;;;1.70;;
35632;SDS011;21754;48.216;-1.628;2024-02-15T07:43:38;3.45;;;2.45;;
35632;SDS011;21754;48.216;-1.628;2024-02-15T07:46:04;8.18;;;3.42;;
35632;SDS011;21754;48.216;-1.628;2024-02-15T07:48:30;5.35;;;1.98;;
35632;SDS011;21754;48.216;-1.628;2024-02-15T07:50:56;6.20;;;1.85;;
35632;SDS011;21754;48.216;-1.628;2024-02-15T07:53:23;5.70;;;1.77;;
35632;SDS011;21754;48.216;-1.628;2024-02-15T07:55:50;2.95;;;2.05;;
35632;SDS011;21754;48.216;-1.628;2024-02-15T07:58:16;4.75;;;2.45;;
35632;SDS011;21754;48.216;-1.628;2024-02-15T08:00:44;2.83;;;1.98;;
35632;SDS011;21754;48.216;-1.628;2024-02-15T08:03:10;6.95;;;2.20;;
35632;SDS011;21754;48.216;-1.628;2024-02-15T08:05:36;3.30;;;2.17;;
35632;SDS011;21754;48.216;-1.628;2024-02-15T08:08:03;2.28;;;2.08;;
35632;SDS011;21754;48.216;-1.628;2024-02-15T08:10:29;4.07;;;1.75;;
35632;SDS011;21754;48.216;-1.628;2024-02-15T08:12:55;4.03;;;1.77;;
35632;SDS011;21754;48.216;-1.628;2024-02-15T08:15:23;7.15;;;1.85;;
35632;SDS011;21754;48.216;-1.628;2024-02-15T08:17:49;2.30;;;1.88;;
35632;SDS011;21754;48.216;-1.628;2024-02-15T08:20:15;2.28;;;2.00;;
35632;SDS011;21754;48.216;-1.628;2024-02-15T08:22:46;1.83;;;1.73;;
35632;SDS011;21754;48.216;-1.628;2024-02-15T08:25:13;6.07;;;1.90;;
35632;SDS011;21754;48.216;-1.628;2024-02-15T08:27:43;2.30;;;1.42;;
35632;SDS011;21754;48.216;-1.628;2024-02-15T08:30:10;3.28;;;1.67;;
35632;SDS011;21754;48.216;-1.628;2024-02-15T08:32:39;1.83;;;1.65;;
35632;SDS011;21754;48.216;-1.628;2024-02-15T08:35:07;6.68;;;2.25;;
35632;SDS011;21754;48.216;-1.628;2024-02-15T08:37:34;5.30;;;2.15;;
35632;SDS011;21754;48.216;-1.628;2024-02-15T08:40:07;5.93;;;1.90;;
35632;SDS011;21754;48.216;-1.628;2024-02-15T08:42:40;3.90;;;1.63;;
35632;SDS011;21754;48.216;-1.628;2024-02-15T08:45:06;2.53;;;2.10;;
35632;SDS011;21754;48.216;-1.628;2024-02-15T08:49:59;1.80;;;1.48;;
35632;SDS011;21754;48.216;-1.628;2024-02-15T08:52:25;4.70;;;2.10;;
35632;SDS011;21754;48.216;-1.628;2024-02-15T08:54:51;3.22;;;1.75;;
35632;SDS011;21754;48.216;-1.628;2024-02-15T08:57:17;4.13;;;2.08;;
35632;SDS011;21754;48.216;-1.628;2024-02-15T08:59:44;2.90;;;1.23;;
35632;SDS011;21754;48.216;-1.628;2024-02-15T09:02:10;3.22;;;1.95;;
35632;SDS011;21754;48.216;-1.628;2024-02-15T09:04:36;2.85;;;1.48;;
35632;SDS011;21754;48.216;-1.628;2024-02-15T09:07:02;5.32;;;2.15;;
35632;SDS011;21754;48.216;-1.628;2024-02-15T09:09:29;3.55;;;1.48;;
35632;SDS011;21754;48.216;-1.628;2024-02-15T09:11:56;1.80;;;1.60;;
35632;SDS011;21754;48.216;-1.628;2024-02-15T09:14:23;3.97;;;2.00;;
35632;SDS011;21754;48.216;-1.628;2024-02-15T09:16:49;7.20;;;2.80;;
35632;SDS011;21754;48.216;-1.628;2024-02-15T09:19:15;7.38;;;1.90;;
35632;SDS011;21754;48.216;-1.628;2024-02-15T09:21:41;4.78;;;2.00;;
35632;SDS011;21754;48.216;-1.628;2024-02-15T09:24:07;3.17;;;1.60;;
35632;SDS011;21754;48.216;-1.628;2024-02-15T09:26:33;3.45;;;2.28;;
35632;SDS011;21754;48.216;-1.628;2024-02-15T09:28:59;2.67;;;2.00;;
35632;SDS011;21754;48.216;-1.628;2024-02-15T09:31:25;4.72;;;2.38;;
35632;SDS011;21754;48.216;-1.628;2024-02-15T09:33:51;1.70;;;1.60;;
35632;SDS011;21754;48.216;-1.628;2024-02-15T09:36:17;3.97;;;2.40;;
35632;SDS011;21754;48.216;-1.628;2024-02-15T09:38:43;4.82;;;1.98;;
35632;SDS011;21754;48.216;-1.628;2024-02-15T09:41:09;4.40;;;1.75;;
35632;SDS011;21754;48.216;-1.628;2024-02-15T09:43:35;2.47;;;1.92;;
35632;SDS011;21754;48.216;-1.628;2024-02-15T09:46:01;2.38;;;1.80;;
35632;SDS011;21754;48.216;-1.628;2024-02-15T09:48:29;3.30;;;2.00;;
35632;SDS011;21754;48.216;-1.628;2024-02-15T09:50:55;2.40;;;2.00;;
35632;SDS011;21754;48.216;-1.628;2024-02-15T09:53:22;4.72;;;2.30;;
35632;SDS011;21754;48.216;-1.628;2024-02-15T09:55:53;2.10;;;1.90;;
35632;SDS011;21754;48.216;-1.628;2024-02-15T09:58:22;3.60;;;1.98;;
35632;SDS011;21754;48.216;-1.628;2024-02-15T10:00:48;2.70;;;2.35;;
35632;SDS011;21754;48.216;-1.628;2024-02-15T10:03:16;2.80;;;2.00;;
35632;SDS011;21754;48.216;-1.628;2024-02-15T10:05:47;4.10;;;2.60;;
35632;SDS011;21754;48.216;-1.628;2024-02-15T10:08:14;3.20;;;2.05;;
35632;SDS011;21754;48.216;-1.628;2024-02-15T10:10:40;4.63;;;2.10;;
35632;SDS011;21754;48.216;-1.628;2024-02-15T10:13:08;2.95;;;2.00;;
35632;SDS011;21754;48.216;-1.628;2024-02-15T10:15:38;3.72;;;1.80;;
35632;SDS011;21754;48.216;-1.628;2024-02-15T10:18:09;4.05;;;2.63;;
35632;SDS011;21754;48.216;-1.628;2024-02-15T10:20:37;6.50;;;3.33;;
35632;SDS011;21754;48.216;-1.628;2024-02-15T10:25:33;9.70;;;2.95;;
35632;SDS011;21754;48.216;-1.628;2024-02-15T10:30:33;7.63;;;3.75;;
35632;SDS011;21754;48.216;-1.628;2024-02-15T10:32:59;11.95;;;2.33;;
35632;SDS011;21754;48.216;-1.628;2024-02-15T10:35:25;2.60;;;2.40;;
35632;SDS011;21754;48.216;-1.628;2024-02-15T10:37:51;2.15;;;1.90;;
35632;SDS011;21754;48.216;-1.628;2024-02-15T10:40:18;3.78;;;1.90;;
35632;SDS011;21754;48.216;-1.628;2024-02-15T10:42:45;3.95;;;3.08;;
35632;SDS011;21754;48.216;-1.628;2024-02-15T10:45:12;3.40;;;2.00;;
35632;SDS011;21754;48.216;-1.628;2024-02-15T10:47:43;2.88;;;2.20;;
35632;SDS011;21754;48.216;-1.628;2024-02-15T10:50:10;5.05;;;2.00;;
35632;SDS011;21754;48.216;-1.628;2024-02-15T10:52:37;2.00;;;1.90;;
35632;SDS011;21754;48.216;-1.628;2024-02-15T10:55:08;5.32;;;1.85;;
35632;SDS011;21754;48.216;-1.628;2024-02-15T10:57:39;3.22;;;2.30;;
35632;SDS011;21754;48.216;-1.628;2024-02-15T11:00:05;13.23;;;2.40;;
35632;SDS011;21754;48.216;-1.628;2024-02-15T11:02:49;1.70;;;1.60;;
35632;SDS011;21754;48.216;-1.628;2024-02-15T11:05:16;1.90;;;1.73;;
35632;SDS011;21754;48.216;-1.628;2024-02-15T11:07:46;4.50;;;1.85;;
35632;SDS011;21754;48.216;-1.628;2024-02-15T11:10:12;2.90;;;1.67;;
35632;SDS011;21754;48.216;-1.628;2024-02-15T11:12:42;9.32;;;2.05;;
35632;SDS011;21754;48.216;-1.628;2024-02-15T11:15:08;3.55;;;1.75;;
35632;SDS011;21754;48.216;-1.628;2024-02-15T11:20:05;5.47;;;1.80;;
35632;SDS011;21754;48.216;-1.628;2024-02-15T11:22:37;6.88;;;1.90;;
35632;SDS011;21754;48.216;-1.628;2024-02-15T11:25:04;1.63;;;1.53;;
35632;SDS011;21754;48.216;-1.628;2024-02-15T11:27:37;9.32;;;2.05;;
35632;SDS011;21754;48.216;-1.628;2024-02-15T11:32:47;2.42;;;1.60;;
35632;SDS011;21754;48.216;-1.628;2024-02-15T11:35:17;1.65;;;1.30;;
35632;SDS011;21754;48.216;-1.628;2024-02-15T11:40:17;2.60;;;2.17;;
35632;SDS011;21754;48.216;-1.628;2024-02-15T11:42:44;2.38;;;1.80;;
35632;SDS011;21754;48.216;-1.628;2024-02-15T11:45:11;7.85;;;2.47;;
35632;SDS011;21754;48.216;-1.628;2024-02-15T11:47:38;2.40;;;1.10;;
35632;SDS011;21754;48.216;-1.628;2024-02-15T11:50:11;13.47;;;2.57;;
35632;SDS011;21754;48.216;-1.628;2024-02-15T11:52:40;5.55;;;1.60;;
35632;SDS011;21754;48.216;-1.628;2024-02-15T11:55:07;2.60;;;1.73;;
35632;SDS011;21754;48.216;-1.628;2024-02-15T11:57:38;2.58;;;1.92;;
35632;SDS011;21754;48.216;-1.628;2024-02-15T12:02:59;5.10;;;2.63;;
35632;SDS011;21754;48.216;-1.628;2024-02-15T12:05:43;3.70;;;2.05;;
35632;SDS011;21754;48.216;-1.628;2024-02-15T12:08:28;2.25;;;2.00;;
35632;SDS011;21754;48.216;-1.628;2024-02-15T12:11:16;3.33;;;2.45;;
35632;SDS011;21754;48.216;-1.628;2024-02-15T12:16:45;2.33;;;1.92;;
35632;SDS011;21754;48.216;-1.628;2024-02-15T12:19:30;5.30;;;2.45;;
35632;SDS011;21754;48.216;-1.628;2024-02-15T12:21:56;4.75;;;2.08;;
35632;SDS011;21754;48.216;-1.628;2024-02-15T12:24:22;1.98;;;1.77;;
35632;SDS011;21754;48.216;-1.628;2024-02-15T12:26:52;5.30;;;2.17;;
35632;SDS011;21754;48.216;-1.628;2024-02-15T12:29:18;1.85;;;1.58;;
35632;SDS011;21754;48.216;-1.628;2024-02-15T12:31:44;4.60;;;1.90;;
35632;SDS011;21754;48.216;-1.628;2024-02-15T12:34:10;4.00;;;2.30;;
35632;SDS011;21754;48.216;-1.628;2024-02-15T12:36:37;4.20;;;2.15;;
35632;SDS011;21754;48.216;-1.628;2024-02-15T12:39:03;2.28;;;1.75;;
35632;SDS011;21754;48.216;-1.628;2024-02-15T12:41:48;3.92;;;1.67;;
35632;SDS011;21754;48.216;-1.628;2024-02-15T12:44:17;2.10;;;1.90;;
35632;SDS011;21754;48.216;-1.628;2024-02-15T12:46:45;8.27;;;2.00;;
35632;SDS011;21754;48.216;-1.628;2024-02-15T12:51:49;2.08;;;1.88;;
35632;SDS011;21754;48.216;-1.628;2024-02-15T12:54:19;6.57;;;2.70;;
35632;SDS011;21754;48.216;-1.628;2024-02-15T12:56:49;5.20;;;2.08;;
35632;SDS011;21754;48.216;-1.628;2024-02-15T12:59:17;1.83;;;1.60;;
35632;SDS011;21754;48.216;-1.628;2024-02-15T13:01:48;2.42;;;2.00;;
35632;SDS011;21754;48.216;-1.628;2024-02-15T13:04:24;6.45;;;2.25;;
35632;SDS011;21754;48.216;-1.628;2024-02-15T13:06:50;5.40;;;2.17;;
35632;SDS011;21754;48.216;-1.628;2024-02-15T13:09:16;3.20;;;2.33;;
35632;SDS011;21754;48.216;-1.628;2024-02-15T13:11:43;5.82;;;1.63;;
35632;SDS011;21754;48.216;-1.628;2024-02-15T13:14:12;3.75;;;2.03;;
35632;SDS011;21754;48.216;-1.628;2024-02-15T13:16:38;7.63;;;2.35;;
35632;SDS011;21754;48.216;-1.628;2024-02-15T13:19:04;4.68;;;1.80;;
35632;SDS011;21754;48.216;-1.628;2024-02-15T13:21:32;2.75;;;2.03;;
35632;SDS011;21754;48.216;-1.628;2024-02-15T13:23:59;1.95;;;1.65;;
35632;SDS011;21754;48.216;-1.628;2024-02-15T13:26:29;1.88;;;1.77;;
35632;SDS011;21754;48.216;-1.628;2024-02-15T13:28:55;3.85;;;1.67;;
35632;SDS011;21754;48.216;-1.628;2024-02-15T13:31:21;3.47;;;1.85;;
35632;SDS011;21754;48.216;-1.628;2024-02-15T13:33:48;6.78;;;2.47;;
35632;SDS011;21754;48.216;-1.628;2024-02-15T13:36:14;7.55;;;2.50;;
35632;SDS011;21754;48.216;-1.628;2024-02-15T13:38:41;9.70;;;2.40;;
35632;SDS011;21754;48.216;-1.628;2024-02-15T13:41:07;3.22;;;2.60;;
35632;SDS011;21754;48.216;-1.628;2024-02-15T13:43:34;3.73;;;1.83;;
35632;SDS011;21754;48.216;-1.628;2024-02-15T13:46:00;2.70;;;2.30;;
35632;SDS011;21754;48.216;-1.628;2024-02-15T13:48:30;3.35;;;2.20;;
35632;SDS011;21754;48.216;-1.628;2024-02-15T13:50:56;5.40;;;2.13;;
35632;SDS011;21754;48.216;-1.628;2024-02-15T13:53:23;3.95;;;2.47;;
35632;SDS011;21754;48.216;-1.628;2024-02-15T13:55:50;2.67;;;2.27;;
35632;SDS011;21754;48.216;-1.628;2024-02-15T13:58:17;5.67;;;1.87;;
35632;SDS011;21754;48.216;-1.628;2024-02-15T14:00:43;3.15;;;1.90;;
35632;SDS011;21754;48.216;-1.628;2024-02-15T14:03:10;9.82;;;2.40;;
35632;SDS011;21754;48.216;-1.628;2024-02-15T14:05:37;4.35;;;2.88;;
35632;SDS011;21754;48.216;-1.628;2024-02-15T14:08:05;14.40;;;6.80;;
35632;SDS011;21754;48.216;-1.628;2024-02-15T14:10:33;7.20;;;3.38;;
35632;SDS011;21754;48.216;-1.628;2024-02-15T14:13:03;2.95;;;2.45;;
35632;SDS011;21754;48.216;-1.628;2024-02-15T14:15:36;5.47;;;1.95;;
35632;SDS011;21754;48.216;-1.628;2024-02-15T14:18:12;5.00;;;2.40;;
35632;SDS011;21754;48.216;-1.628;2024-02-15T14:20:39;3.97;;;2.10;;
35632;SDS011;21754;48.216;-1.628;2024-02-15T14:23:07;8.43;;;2.30;;
35632;SDS011;21754;48.216;-1.628;2024-02-15T14:25:38;4.70;;;1.77;;
35632;SDS011;21754;48.216;-1.628;2024-02-15T14:28:04;6.93;;;2.25;;
35632;SDS011;21754;48.216;-1.628;2024-02-15T14:30:34;5.43;;;2.45;;
35632;SDS011;21754;48.216;-1.628;2024-02-15T14:33:19;4.72;;;2.28;;
35632;SDS011;21754;48.216;-1.628;2024-02-15T14:35:47;2.50;;;1.83;;
35632;SDS011;21754;48.216;-1.628;2024-02-15T14:38:13;3.50;;;1.52;;
35632;SDS011;21754;48.216;-1.628;2024-02-15T14:40:43;3.45;;;1.95;;
35632;SDS011;21754;48.216;-1.628;2024-02-15T14:43:20;7.07;;;2.13;;
35632;SDS011;21754;48.216;-1.628;2024-02-15T14:45:46;5.60;;;2.38;;
35632;SDS011;21754;48.216;-1.628;2024-02-15T14:48:13;3.47;;;1.85;;
35632;SDS011;21754;48.216;-1.628;2024-02-15T14:50:42;4.50;;;2.15;;
35632;SDS011;21754;48.216;-1.628;2024-02-15T14:53:09;3.60;;;2.13;;
35632;SDS011;21754;48.216;-1.628;2024-02-15T14:55:35;6.95;;;1.33;;
35632;SDS011;21754;48.216;-1.628;2024-02-15T14:58:04;3.58;;;1.50;;
35632;SDS011;21754;48.216;-1.628;2024-02-15T15:00:31;1.60;;;1.50;;
35632;SDS011;21754;48.216;-1.628;2024-02-15T15:02:57;2.30;;;1.75;;
35632;SDS011;21754;48.216;-1.628;2024-02-15T15:05:23;4.13;;;2.78;;